sensor_id;sensor_type;location;lat;lon;timestamp;P1;durP1;ratioP1;P2;durP2;ratioP2
10661;SDS011;5379;51.034;7.006;2023-03-20T00:00:20;6.80;;;6.20;;
10661;SDS011;5379;51.034;7.006;2023-03-20T00:02:54;7.07;;;6.47;;
10661;SDS011;5379;51.034;7.006;2023-03-20T00:05:21;7.80;;;6.83;;
10661;SDS011;5379;51.034;7.006;2023-03-20T00:07:49;8.37;;;6.93;;
10661;SDS011;5379;51.034;7.006;2023-03-20T00:10:17;8.13;;;7.20;;
10661;SDS011;5379;51.034;7.006;2023-03-20T00:12:45;10.80;;;6.83;;
10661;SDS011;5379;51.034;7.006;2023-03-20T00:15:25;8.40;;;7.53;;
10661;SDS011;5379;51.034;7.006;2023-03-20T00:17:55;8.13;;;7.13;;
10661;SDS011;5379;51.034;7.006;2023-03-20T00:20:22;8.80;;;7.37;;
10661;SDS011;5379;51.034;7.006;2023-03-20T00:22:50;7.87;;;7.10;;
10661;SDS011;5379;51.034;7.006;2023-03-20T00:25:18;8.40;;;6.60;;
10661;SDS011;5379;51.034;7.006;2023-03-20T00:27:46;9.37;;;7.20;;
10661;SDS011;5379;51.034;7.006;2023-03-20T00:30:22;11.63;;;7.57;;
10661;SDS011;5379;51.034;7.006;2023-03-20T00:32:56;9.00;;;7.20;;
10661;SDS011;5379;51.034;7.006;2023-03-20T00:35:24;8.40;;;7.50;;
10661;SDS011;5379;51.034;7.006;2023-03-20T00:37:53;8.07;;;7.37;;
10661;SDS011;5379;51.034;7.006;2023-03-20T00:40:22;7.80;;;6.47;;
10661;SDS011;5379;51.034;7.006;2023-03-20T00:42:55;7.73;;;6.93;;
10661;SDS011;5379;51.034;7.006;2023-03-20T00:45:25;11.03;;;7.63;;
10661;SDS011;5379;51.034;7.006;2023-03-20T00:47:53;9.83;;;7.73;;
10661;SDS011;5379;51.034;7.006;2023-03-20T00:50:23;7.50;;;6.73;;
10661;SDS011;5379;51.034;7.006;2023-03-20T00:52:53;8.83;;;7.33;;
10661;SDS011;5379;51.034;7.006;2023-03-20T00:55:20;10.47;;;7.50;;
10661;SDS011;5379;51.034;7.006;2023-03-20T00:57:49;8.57;;;7.03;;
10661;SDS011;5379;51.034;7.006;2023-03-20T05:32:45;9.07;;;7.73;;
10661;SDS011;5379;51.034;7.006;2023-03-20T05:35:14;11.27;;;8.43;;
10661;SDS011;5379;51.034;7.006;2023-03-20T05:37:42;14.07;;;8.97;;
10661;SDS011;5379;51.034;7.006;2023-03-20T05:40:11;13.57;;;8.67;;
10661;SDS011;5379;51.034;7.006;2023-03-20T05:42:39;9.63;;;8.73;;
10661;SDS011;5379;51.034;7.006;2023-03-20T05:45:07;11.23;;;8.73;;
10661;SDS011;5379;51.034;7.006;2023-03-20T05:47:34;10.03;;;9.03;;
10661;SDS011;5379;51.034;7.006;2023-03-20T05:50:03;13.67;;;9.53;;
10661;SDS011;5379;51.034;7.006;2023-03-20T05:52:30;16.23;;;9.13;;
10661;SDS011;5379;51.034;7.006;2023-03-20T05:54:57;10.20;;;9.13;;
10661;SDS011;5379;51.034;7.006;2023-03-20T05:57:24;9.70;;;8.70;;
10661;SDS011;5379;51.034;7.006;2023-03-20T05:59:51;11.83;;;8.57;;
10661;SDS011;5379;51.034;7.006;2023-03-20T06:02:18;10.10;;;7.70;;
10661;SDS011;5379;51.034;7.006;2023-03-20T06:04:45;10.50;;;8.30;;
10661;SDS011;5379;51.034;7.006;2023-03-20T06:07:13;10.97;;;8.63;;
10661;SDS011;5379;51.034;7.006;2023-03-20T06:09:40;8.90;;;7.60;;
10661;SDS011;5379;51.034;7.006;2023-03-20T06:12:07;8.70;;;7.77;;
10661;SDS011;5379;51.034;7.006;2023-03-20T06:14:34;8.63;;;7.27;;
10661;SDS011;5379;51.034;7.006;2023-03-20T06:17:01;8.90;;;7.60;;
10661;SDS011;5379;51.034;7.006;2023-03-20T06:19:28;11.93;;;7.27;;
10661;SDS011;5379;51.034;7.006;2023-03-20T06:21:55;7.60;;;6.90;;
10661;SDS011;5379;51.034;7.006;2023-03-20T06:24:23;10.23;;;6.93;;
10661;SDS011;5379;51.034;7.006;2023-03-20T06:26:50;11.83;;;7.87;;
10661;SDS011;5379;51.034;7.006;2023-03-20T06:29:17;9.33;;;7.30;;
10661;SDS011;5379;51.034;7.006;2023-03-20T06:31:44;13.13;;;7.87;;
10661;SDS011;5379;51.034;7.006;2023-03-20T06:34:12;13.90;;;8.20;;
10661;SDS011;5379;51.034;7.006;2023-03-20T06:36:39;11.37;;;7.50;;
10661;SDS011;5379;51.034;7.006;2023-03-20T06:39:05;12.60;;;7.07;;
10661;SDS011;5379;51.034;7.006;2023-03-20T06:41:34;9.93;;;7.90;;
10661;SDS011;5379;51.034;7.006;2023-03-20T06:44:01;8.20;;;7.47;;
10661;SDS011;5379;51.034;7.006;2023-03-20T06:46:28;8.97;;;7.77;;
10661;SDS011;5379;51.034;7.006;2023-03-20T06:48:55;12.17;;;8.53;;
10661;SDS011;5379;51.034;7.006;2023-03-20T06:51:22;11.07;;;8.60;;
10661;SDS011;5379;51.034;7.006;2023-03-20T06:53:49;9.80;;;8.60;;
10661;SDS011;5379;51.034;7.006;2023-03-20T06:56:16;14.43;;;8.50;;
10661;SDS011;5379;51.034;7.006;2023-03-20T06:58:45;11.93;;;8.63;;
10661;SDS011;5379;51.034;7.006;2023-03-20T07:01:12;18.77;;;9.43;;
10661;SDS011;5379;51.034;7.006;2023-03-20T07:03:41;10.57;;;8.33;;
10661;SDS011;5379;51.034;7.006;2023-03-20T07:06:08;7.83;;;6.87;;
10661;SDS011;5379;51.034;7.006;2023-03-20T07:08:35;10.53;;;7.30;;
10661;SDS011;5379;51.034;7.006;2023-03-20T07:11:03;9.67;;;8.37;;
10661;SDS011;5379;51.034;7.006;2023-03-20T07:13:30;11.53;;;7.90;;
10661;SDS011;5379;51.034;7.006;2023-03-20T07:16:00;11.03;;;8.80;;
10661;SDS011;5379;51.034;7.006;2023-03-20T07:18:28;17.13;;;8.27;;
10661;SDS011;5379;51.034;7.006;2023-03-20T07:20:57;8.67;;;7.77;;
10661;SDS011;5379;51.034;7.006;2023-03-20T07:23:26;14.67;;;8.30;;
10661;SDS011;5379;51.034;7.006;2023-03-20T07:25:53;11.53;;;8.10;;
10661;SDS011;5379;51.034;7.006;2023-03-20T07:28:20;12.27;;;8.27;;
10661;SDS011;5379;51.034;7.006;2023-03-20T07:30:47;10.10;;;7.33;;
10661;SDS011;5379;51.034;7.006;2023-03-20T07:33:15;10.63;;;6.67;;
10661;SDS011;5379;51.034;7.006;2023-03-20T07:35:43;7.33;;;6.63;;
10661;SDS011;5379;51.034;7.006;2023-03-20T07:38:10;8.83;;;6.97;;
10661;SDS011;5379;51.034;7.006;2023-03-20T07:40:36;8.37;;;6.40;;
10661;SDS011;5379;51.034;7.006;2023-03-20T07:43:03;6.87;;;6.17;;
10661;SDS011;5379;51.034;7.006;2023-03-20T07:45:30;9.57;;;6.90;;
10661;SDS011;5379;51.034;7.006;2023-03-20T07:47:57;10.77;;;7.13;;
10661;SDS011;5379;51.034;7.006;2023-03-20T07:50:26;9.13;;;6.93;;
10661;SDS011;5379;51.034;7.006;2023-03-20T07:52:53;7.90;;;6.80;;
10661;SDS011;5379;51.034;7.006;2023-03-20T07:55:20;8.20;;;6.17;;
10661;SDS011;5379;51.034;7.006;2023-03-20T07:57:47;6.37;;;5.57;;
10661;SDS011;5379;51.034;7.006;2023-03-20T08:00:15;10.50;;;5.57;;
10661;SDS011;5379;51.034;7.006;2023-03-20T08:02:43;5.83;;;5.17;;
10661;SDS011;5379;51.034;7.006;2023-03-20T08:05:10;5.63;;;5.13;;
10661;SDS011;5379;51.034;7.006;2023-03-20T08:07:38;6.70;;;5.50;;
10661;SDS011;5379;51.034;7.006;2023-03-20T08:10:05;9.63;;;5.67;;
10661;SDS011;5379;51.034;7.006;2023-03-20T08:12:33;7.83;;;5.53;;
10661;SDS011;5379;51.034;7.006;2023-03-20T08:15:00;6.60;;;5.23;;
10661;SDS011;5379;51.034;7.006;2023-03-20T08:17:27;6.73;;;5.80;;
10661;SDS011;5379;51.034;7.006;2023-03-20T08:19:54;16.10;;;5.33;;
10661;SDS011;5379;51.034;7.006;2023-03-20T08:22:21;4.33;;;3.90;;
10661;SDS011;5379;51.034;7.006;2023-03-20T08:24:49;5.17;;;4.00;;
10661;SDS011;5379;51.034;7.006;2023-03-20T08:27:16;7.53;;;4.80;;
10661;SDS011;5379;51.034;7.006;2023-03-20T08:29:43;9.40;;;5.27;;
10661;SDS011;5379;51.034;7.006;2023-03-20T08:32:10;5.50;;;4.67;;
10661;SDS011;5379;51.034;7.006;2023-03-20T08:34:37;8.07;;;5.13;;
10661;SDS011;5379;51.034;7.006;2023-03-20T08:37:04;6.37;;;4.77;;
10661;SDS011;5379;51.034;7.006;2023-03-20T08:39:32;6.20;;;4.83;;
10661;SDS011;5379;51.034;7.006;2023-03-20T08:42:01;4.90;;;4.50;;
10661;SDS011;5379;51.034;7.006;2023-03-20T08:44:28;4.93;;;4.40;;
10661;SDS011;5379;51.034;7.006;2023-03-20T08:46:55;6.63;;;4.80;;
10661;SDS011;5379;51.034;7.006;2023-03-20T08:49:22;11.70;;;4.50;;
10661;SDS011;5379;51.034;7.006;2023-03-20T08:51:49;5.57;;;4.40;;
10661;SDS011;5379;51.034;7.006;2023-03-20T08:54:16;8.27;;;4.73;;
10661;SDS011;5379;51.034;7.006;2023-03-20T08:56:42;4.80;;;4.20;;
10661;SDS011;5379;51.034;7.006;2023-03-20T08:59:11;7.20;;;4.80;;
10661;SDS011;5379;51.034;7.006;2023-03-20T09:01:38;5.63;;;4.70;;
10661;SDS011;5379;51.034;7.006;2023-03-20T09:04:05;6.40;;;4.77;;
10661;SDS011;5379;51.034;7.006;2023-03-20T09:06:34;5.03;;;4.07;;
10661;SDS011;5379;51.034;7.006;2023-03-20T09:09:02;5.10;;;4.67;;
10661;SDS011;5379;51.034;7.006;2023-03-20T09:11:29;6.73;;;5.50;;
10661;SDS011;5379;51.034;7.006;2023-03-20T09:13:57;4.23;;;3.90;;
10661;SDS011;5379;51.034;7.006;2023-03-20T09:16:26;5.63;;;5.23;;
10661;SDS011;5379;51.034;7.006;2023-03-20T09:18:53;5.77;;;5.20;;
10661;SDS011;5379;51.034;7.006;2023-03-20T09:21:20;5.70;;;4.77;;
10661;SDS011;5379;51.034;7.006;2023-03-20T09:23:47;6.97;;;4.67;;
10661;SDS011;5379;51.034;7.006;2023-03-20T09:26:14;9.27;;;4.93;;
10661;SDS011;5379;51.034;7.006;2023-03-20T09:28:41;5.80;;;4.97;;
10661;SDS011;5379;51.034;7.006;2023-03-20T09:31:08;9.90;;;5.33;;
10661;SDS011;5379;51.034;7.006;2023-03-20T09:33:37;6.83;;;4.77;;
10661;SDS011;5379;51.034;7.006;2023-03-20T09:36:04;5.33;;;4.30;;
10661;SDS011;5379;51.034;7.006;2023-03-20T09:38:35;5.43;;;4.83;;
10661;SDS011;5379;51.034;7.006;2023-03-20T09:41:02;6.73;;;4.57;;
10661;SDS011;5379;51.034;7.006;2023-03-20T09:43:37;8.50;;;5.03;;
10661;SDS011;5379;51.034;7.006;2023-03-20T09:46:15;5.80;;;5.07;;
10661;SDS011;5379;51.034;7.006;2023-03-20T09:48:56;5.57;;;5.07;;
10661;SDS011;5379;51.034;7.006;2023-03-20T09:51:29;5.73;;;5.03;;
10661;SDS011;5379;51.034;7.006;2023-03-20T09:54:03;6.07;;;5.23;;
10661;SDS011;5379;51.034;7.006;2023-03-20T09:56:35;9.17;;;5.30;;
10661;SDS011;5379;51.034;7.006;2023-03-20T09:59:03;7.97;;;4.93;;
10661;SDS011;5379;51.034;7.006;2023-03-20T10:01:35;6.93;;;5.60;;
10661;SDS011;5379;51.034;7.006;2023-03-20T10:04:10;4.80;;;4.40;;
10661;SDS011;5379;51.034;7.006;2023-03-20T10:06:38;4.47;;;4.07;;
10661;SDS011;5379;51.034;7.006;2023-03-20T10:09:09;9.43;;;4.70;;
10661;SDS011;5379;51.034;7.006;2023-03-20T10:11:49;6.10;;;4.67;;
10661;SDS011;5379;51.034;7.006;2023-03-20T10:14:25;5.07;;;4.57;;
10661;SDS011;5379;51.034;7.006;2023-03-20T10:17:03;5.43;;;4.93;;
10661;SDS011;5379;51.034;7.006;2023-03-20T10:19:43;5.37;;;4.37;;
10661;SDS011;5379;51.034;7.006;2023-03-20T10:22:16;5.13;;;3.77;;
10661;SDS011;5379;51.034;7.006;2023-03-20T10:24:51;6.30;;;4.20;;
10661;SDS011;5379;51.034;7.006;2023-03-20T10:27:24;7.23;;;5.13;;
10661;SDS011;5379;51.034;7.006;2023-03-20T10:29:58;5.50;;;4.30;;
10661;SDS011;5379;51.034;7.006;2023-03-20T10:32:39;10.57;;;4.70;;
10661;SDS011;5379;51.034;7.006;2023-03-20T10:35:17;3.40;;;3.10;;
10661;SDS011;5379;51.034;7.006;2023-03-20T10:37:52;3.43;;;3.07;;
10661;SDS011;5379;51.034;7.006;2023-03-20T10:40:30;6.37;;;3.43;;
10661;SDS011;5379;51.034;7.006;2023-03-20T10:43:00;3.67;;;2.63;;
10661;SDS011;5379;51.034;7.006;2023-03-20T10:45:33;3.20;;;2.90;;
10661;SDS011;5379;51.034;7.006;2023-03-20T10:48:09;4.73;;;2.90;;
10661;SDS011;5379;51.034;7.006;2023-03-20T10:50:44;3.23;;;2.93;;
10661;SDS011;5379;51.034;7.006;2023-03-20T10:53:33;4.03;;;2.70;;
10661;SDS011;5379;51.034;7.006;2023-03-20T10:56:04;2.87;;;2.60;;
10661;SDS011;5379;51.034;7.006;2023-03-20T10:58:34;3.70;;;2.80;;
10661;SDS011;5379;51.034;7.006;2023-03-20T11:01:05;3.73;;;2.17;;
10661;SDS011;5379;51.034;7.006;2023-03-20T11:03:32;2.27;;;2.07;;
10661;SDS011;5379;51.034;7.006;2023-03-20T11:06:05;3.30;;;3.00;;
10661;SDS011;5379;51.034;7.006;2023-03-20T11:08:39;3.13;;;2.47;;
10661;SDS011;5379;51.034;7.006;2023-03-20T11:11:08;6.07;;;2.70;;
10661;SDS011;5379;51.034;7.006;2023-03-20T11:13:35;3.40;;;2.40;;
10661;SDS011;5379;51.034;7.006;2023-03-20T11:16:09;2.67;;;2.03;;
10661;SDS011;5379;51.034;7.006;2023-03-20T11:18:41;3.50;;;2.43;;
10661;SDS011;5379;51.034;7.006;2023-03-20T11:21:14;4.40;;;2.53;;
10661;SDS011;5379;51.034;7.006;2023-03-20T11:23:44;2.30;;;2.10;;
10661;SDS011;5379;51.034;7.006;2023-03-20T11:26:11;2.33;;;1.97;;
10661;SDS011;5379;51.034;7.006;2023-03-20T11:28:41;5.17;;;2.57;;
10661;SDS011;5379;51.034;7.006;2023-03-20T11:31:16;3.57;;;1.83;;
10661;SDS011;5379;51.034;7.006;2023-03-20T11:33:49;3.37;;;1.97;;
10661;SDS011;5379;51.034;7.006;2023-03-20T11:36:23;2.17;;;2.07;;
10661;SDS011;5379;51.034;7.006;2023-03-20T11:38:57;4.17;;;2.10;;
10661;SDS011;5379;51.034;7.006;2023-03-20T11:41:28;2.77;;;2.17;;
10661;SDS011;5379;51.034;7.006;2023-03-20T11:43:55;6.70;;;3.00;;
10661;SDS011;5379;51.034;7.006;2023-03-20T11:46:22;4.70;;;2.37;;
10661;SDS011;5379;51.034;7.006;2023-03-20T11:49:03;4.30;;;2.33;;
10661;SDS011;5379;51.034;7.006;2023-03-20T11:51:34;6.30;;;2.23;;
10661;SDS011;5379;51.034;7.006;2023-03-20T11:54:03;2.43;;;2.20;;
10661;SDS011;5379;51.034;7.006;2023-03-20T11:56:35;4.53;;;2.43;;
10661;SDS011;5379;51.034;7.006;2023-03-20T11:59:03;3.83;;;2.37;;
10661;SDS011;5379;51.034;7.006;2023-03-20T12:01:38;2.07;;;1.77;;
10661;SDS011;5379;51.034;7.006;2023-03-20T12:04:12;5.93;;;2.20;;
10661;SDS011;5379;51.034;7.006;2023-03-20T12:06:47;4.47;;;1.83;;
10661;SDS011;5379;51.034;7.006;2023-03-20T12:09:26;4.43;;;1.60;;
10661;SDS011;5379;51.034;7.006;2023-03-20T12:12:10;2.37;;;2.17;;
10661;SDS011;5379;51.034;7.006;2023-03-20T12:14:42;2.83;;;2.30;;
10661;SDS011;5379;51.034;7.006;2023-03-20T12:17:34;2.40;;;2.20;;
10661;SDS011;5379;51.034;7.006;2023-03-20T12:20:11;3.37;;;2.13;;
10661;SDS011;5379;51.034;7.006;2023-03-20T12:22:48;3.17;;;2.33;;
10661;SDS011;5379;51.034;7.006;2023-03-20T12:25:22;4.17;;;2.10;;
10661;SDS011;5379;51.034;7.006;2023-03-20T12:27:53;2.47;;;1.60;;
10661;SDS011;5379;51.034;7.006;2023-03-20T12:30:29;2.90;;;1.90;;
10661;SDS011;5379;51.034;7.006;2023-03-20T12:33:02;1.77;;;1.67;;
10661;SDS011;5379;51.034;7.006;2023-03-20T12:35:33;2.27;;;2.07;;
10661;SDS011;5379;51.034;7.006;2023-03-20T12:38:07;3.13;;;2.50;;
10661;SDS011;5379;51.034;7.006;2023-03-20T12:40:45;3.57;;;2.17;;
10661;SDS011;5379;51.034;7.006;2023-03-20T12:43:15;2.20;;;2.00;;
10661;SDS011;5379;51.034;7.006;2023-03-20T12:45:51;2.87;;;1.73;;
10661;SDS011;5379;51.034;7.006;2023-03-20T12:48:33;2.03;;;1.93;;
10661;SDS011;5379;51.034;7.006;2023-03-20T12:51:15;1.90;;;1.80;;
10661;SDS011;5379;51.034;7.006;2023-03-20T12:53:54;3.97;;;2.20;;
10661;SDS011;5379;51.034;7.006;2023-03-20T12:56:40;3.73;;;2.40;;
10661;SDS011;5379;51.034;7.006;2023-03-20T12:59:21;7.10;;;2.53;;
10661;SDS011;5379;51.034;7.006;2023-03-20T13:01:55;2.70;;;2.23;;
10661;SDS011;5379;51.034;7.006;2023-03-20T13:04:29;1.97;;;1.80;;
10661;SDS011;5379;51.034;7.006;2023-03-20T13:07:29;3.50;;;2.07;;
10661;SDS011;5379;51.034;7.006;2023-03-20T13:10:08;3.90;;;2.20;;
10661;SDS011;5379;51.034;7.006;2023-03-20T13:12:41;3.70;;;1.83;;
10661;SDS011;5379;51.034;7.006;2023-03-20T13:15:22;2.33;;;2.13;;
10661;SDS011;5379;51.034;7.006;2023-03-20T13:17:57;2.07;;;1.80;;
10661;SDS011;5379;51.034;7.006;2023-03-20T13:20:30;3.17;;;1.70;;
10661;SDS011;5379;51.034;7.006;2023-03-20T13:23:02;1.47;;;1.40;;
10661;SDS011;5379;51.034;7.006;2023-03-20T13:25:50;1.47;;;1.37;;
10661;SDS011;5379;51.034;7.006;2023-03-20T13:28:29;4.03;;;1.30;;
10661;SDS011;5379;51.034;7.006;2023-03-20T13:31:01;2.23;;;1.60;;
10661;SDS011;5379;51.034;7.006;2023-03-20T13:33:42;2.63;;;1.60;;
10661;SDS011;5379;51.034;7.006;2023-03-20T13:36:19;4.07;;;1.80;;
10661;SDS011;5379;51.034;7.006;2023-03-20T13:38:53;8.03;;;1.50;;
10661;SDS011;5379;51.034;7.006;2023-03-20T13:41:27;3.50;;;1.60;;
10661;SDS011;5379;51.034;7.006;2023-03-20T13:43:55;3.20;;;1.77;;
10661;SDS011;5379;51.034;7.006;2023-03-20T13:46:28;2.13;;;1.93;;
10661;SDS011;5379;51.034;7.006;2023-03-20T13:49:01;3.40;;;1.73;;
10661;SDS011;5379;51.034;7.006;2023-03-20T13:51:34;3.60;;;1.93;;
10661;SDS011;5379;51.034;7.006;2023-03-20T13:54:21;3.07;;;2.07;;
10661;SDS011;5379;51.034;7.006;2023-03-20T13:57:08;3.17;;;1.70;;
10661;SDS011;5379;51.034;7.006;2023-03-20T13:59:49;1.93;;;1.77;;
10661;SDS011;5379;51.034;7.006;2023-03-20T14:05:18;1.80;;;1.37;;
10661;SDS011;5379;51.034;7.006;2023-03-20T14:07:47;2.37;;;1.43;;
10661;SDS011;5379;51.034;7.006;2023-03-20T14:10:32;2.00;;;1.43;;
10661;SDS011;5379;51.034;7.006;2023-03-20T14:13:03;1.53;;;1.43;;
10661;SDS011;5379;51.034;7.006;2023-03-20T14:15:32;2.40;;;1.60;;
10661;SDS011;5379;51.034;7.006;2023-03-20T14:18:02;2.63;;;1.60;;
10661;SDS011;5379;51.034;7.006;2023-03-20T14:20:31;2.20;;;1.37;;
10661;SDS011;5379;51.034;7.006;2023-03-20T14:23:00;4.40;;;1.67;;
10661;SDS011;5379;51.034;7.006;2023-03-20T14:25:32;5.07;;;1.60;;
10661;SDS011;5379;51.034;7.006;2023-03-20T14:28:07;2.53;;;1.50;;
10661;SDS011;5379;51.034;7.006;2023-03-20T14:30:51;1.57;;;1.43;;
10661;SDS011;5379;51.034;7.006;2023-03-20T14:33:41;2.90;;;1.70;;
10661;SDS011;5379;51.034;7.006;2023-03-20T14:36:10;4.37;;;1.80;;
10661;SDS011;5379;51.034;7.006;2023-03-20T14:38:43;1.00;;;1.00;;
10661;SDS011;5379;51.034;7.006;2023-03-20T14:41:23;3.03;;;1.60;;
10661;SDS011;5379;51.034;7.006;2023-03-20T14:43:59;2.67;;;1.47;;
10661;SDS011;5379;51.034;7.006;2023-03-20T14:46:38;1.27;;;1.17;;
10661;SDS011;5379;51.034;7.006;2023-03-20T14:49:18;2.70;;;1.77;;
10661;SDS011;5379;51.034;7.006;2023-03-20T14:51:51;2.27;;;1.50;;
10661;SDS011;5379;51.034;7.006;2023-03-20T14:54:24;3.03;;;1.83;;
10661;SDS011;5379;51.034;7.006;2023-03-20T14:56:52;3.53;;;2.00;;
10661;SDS011;5379;51.034;7.006;2023-03-20T14:59:22;3.37;;;2.30;;
10661;SDS011;5379;51.034;7.006;2023-03-20T15:01:54;2.17;;;1.93;;
10661;SDS011;5379;51.034;7.006;2023-03-20T15:04:27;2.87;;;2.23;;
10661;SDS011;5379;51.034;7.006;2023-03-20T15:06:58;5.30;;;2.63;;
10661;SDS011;5379;51.034;7.006;2023-03-20T15:09:28;3.00;;;1.97;;
10661;SDS011;5379;51.034;7.006;2023-03-20T15:11:58;2.30;;;1.90;;
10661;SDS011;5379;51.034;7.006;2023-03-20T15:14:30;6.53;;;2.27;;
10661;SDS011;5379;51.034;7.006;2023-03-20T15:17:00;2.53;;;1.37;;
10661;SDS011;5379;51.034;7.006;2023-03-20T15:19:29;2.00;;;1.53;;
10661;SDS011;5379;51.034;7.006;2023-03-20T15:21:57;2.60;;;1.93;;
10661;SDS011;5379;51.034;7.006;2023-03-20T15:24:25;3.93;;;2.10;;
10661;SDS011;5379;51.034;7.006;2023-03-20T15:26:54;7.93;;;2.17;;
10661;SDS011;5379;51.034;7.006;2023-03-20T15:29:24;4.13;;;1.63;;
10661;SDS011;5379;51.034;7.006;2023-03-20T15:31:54;2.40;;;1.70;;
10661;SDS011;5379;51.034;7.006;2023-03-20T15:34:24;3.40;;;1.93;;
10661;SDS011;5379;51.034;7.006;2023-03-20T15:36:54;3.73;;;1.93;;
10661;SDS011;5379;51.034;7.006;2023-03-20T15:39:23;3.03;;;2.17;;
10661;SDS011;5379;51.034;7.006;2023-03-20T15:41:52;3.27;;;1.73;;
10661;SDS011;5379;51.034;7.006;2023-03-20T15:44:21;4.37;;;1.90;;
10661;SDS011;5379;51.034;7.006;2023-03-20T15:46:55;2.10;;;1.90;;
10661;SDS011;5379;51.034;7.006;2023-03-20T15:49:24;1.43;;;1.27;;
10661;SDS011;5379;51.034;7.006;2023-03-20T15:51:52;6.40;;;1.93;;
10661;SDS011;5379;51.034;7.006;2023-03-20T15:54:22;3.23;;;1.53;;
10661;SDS011;5379;51.034;7.006;2023-03-20T15:56:50;3.77;;;1.77;;
10661;SDS011;5379;51.034;7.006;2023-03-20T15:59:20;2.07;;;1.70;;
10661;SDS011;5379;51.034;7.006;2023-03-20T16:01:50;3.23;;;1.87;;
10661;SDS011;5379;51.034;7.006;2023-03-20T16:04:21;1.60;;;1.50;;
10661;SDS011;5379;51.034;7.006;2023-03-20T16:06:51;1.60;;;1.50;;
10661;SDS011;5379;51.034;7.006;2023-03-20T16:09:19;1.77;;;1.67;;
10661;SDS011;5379;51.034;7.006;2023-03-20T16:11:47;4.07;;;1.83;;
10661;SDS011;5379;51.034;7.006;2023-03-20T16:14:21;3.23;;;1.97;;
10661;SDS011;5379;51.034;7.006;2023-03-20T16:16:51;5.27;;;2.13;;
10661;SDS011;5379;51.034;7.006;2023-03-20T16:19:21;4.37;;;2.37;;
10661;SDS011;5379;51.034;7.006;2023-03-20T16:21:50;3.83;;;1.83;;
10661;SDS011;5379;51.034;7.006;2023-03-20T16:24:20;3.47;;;2.20;;
10661;SDS011;5379;51.034;7.006;2023-03-20T16:26:52;2.50;;;1.30;;
10661;SDS011;5379;51.034;7.006;2023-03-20T16:29:21;2.30;;;1.60;;
10661;SDS011;5379;51.034;7.006;2023-03-20T16:31:52;3.43;;;1.80;;
10661;SDS011;5379;51.034;7.006;2023-03-20T16:34:23;3.43;;;1.57;;
10661;SDS011;5379;51.034;7.006;2023-03-20T16:36:54;4.67;;;2.03;;
10661;SDS011;5379;51.034;7.006;2023-03-20T16:39:23;2.03;;;1.50;;
10661;SDS011;5379;51.034;7.006;2023-03-20T16:41:55;1.70;;;1.57;;
10661;SDS011;5379;51.034;7.006;2023-03-20T16:44:43;3.13;;;1.67;;
10661;SDS011;5379;51.034;7.006;2023-03-20T16:47:16;1.63;;;1.53;;
10661;SDS011;5379;51.034;7.006;2023-03-20T16:52:43;2.87;;;1.57;;
10661;SDS011;5379;51.034;7.006;2023-03-20T16:55:14;4.70;;;2.07;;
10661;SDS011;5379;51.034;7.006;2023-03-20T16:57:45;5.87;;;2.20;;
10661;SDS011;5379;51.034;7.006;2023-03-20T17:00:18;2.57;;;1.63;;
10661;SDS011;5379;51.034;7.006;2023-03-20T17:02:51;7.77;;;2.43;;
10661;SDS011;5379;51.034;7.006;2023-03-20T17:05:23;2.40;;;1.70;;
10661;SDS011;5379;51.034;7.006;2023-03-20T17:08:08;2.13;;;1.53;;
10661;SDS011;5379;51.034;7.006;2023-03-20T17:10:37;2.03;;;1.57;;
10661;SDS011;5379;51.034;7.006;2023-03-20T17:13:06;1.80;;;1.67;;
10661;SDS011;5379;51.034;7.006;2023-03-20T17:15:34;3.07;;;1.80;;
10661;SDS011;5379;51.034;7.006;2023-03-20T17:18:02;3.83;;;1.87;;
10661;SDS011;5379;51.034;7.006;2023-03-20T17:20:33;2.97;;;1.37;;
10661;SDS011;5379;51.034;7.006;2023-03-20T17:23:00;3.30;;;1.80;;
10661;SDS011;5379;51.034;7.006;2023-03-20T17:25:27;5.43;;;2.33;;
10661;SDS011;5379;51.034;7.006;2023-03-20T17:27:54;3.33;;;1.93;;
10661;SDS011;5379;51.034;7.006;2023-03-20T17:30:21;3.73;;;1.77;;
10661;SDS011;5379;51.034;7.006;2023-03-20T17:32:49;4.27;;;2.00;;
10661;SDS011;5379;51.034;7.006;2023-03-20T17:35:17;3.63;;;1.90;;
10661;SDS011;5379;51.034;7.006;2023-03-20T17:37:44;2.90;;;2.03;;
10661;SDS011;5379;51.034;7.006;2023-03-20T17:40:15;3.77;;;1.97;;
10661;SDS011;5379;51.034;7.006;2023-03-20T17:42:43;1.23;;;1.00;;
10661;SDS011;5379;51.034;7.006;2023-03-20T17:45:11;1.90;;;1.80;;
10661;SDS011;5379;51.034;7.006;2023-03-20T17:47:39;2.10;;;1.67;;
10661;SDS011;5379;51.034;7.006;2023-03-20T17:50:09;4.17;;;2.00;;
10661;SDS011;5379;51.034;7.006;2023-03-20T17:52:44;2.27;;;1.40;;
10661;SDS011;5379;51.034;7.006;2023-03-20T17:55:11;2.87;;;1.53;;
10661;SDS011;5379;51.034;7.006;2023-03-20T17:57:39;7.70;;;2.33;;
10661;SDS011;5379;51.034;7.006;2023-03-20T18:00:08;5.40;;;2.73;;
10661;SDS011;5379;51.034;7.006;2023-03-20T18:02:40;3.33;;;1.90;;
10661;SDS011;5379;51.034;7.006;2023-03-20T18:05:07;4.70;;;2.30;;
10661;SDS011;5379;51.034;7.006;2023-03-20T18:07:36;2.63;;;2.07;;
10661;SDS011;5379;51.034;7.006;2023-03-20T18:10:03;3.90;;;1.77;;
10661;SDS011;5379;51.034;7.006;2023-03-20T18:12:31;3.07;;;1.83;;
10661;SDS011;5379;51.034;7.006;2023-03-20T18:14:59;6.67;;;2.07;;
10661;SDS011;5379;51.034;7.006;2023-03-20T18:17:26;4.10;;;1.77;;
10661;SDS011;5379;51.034;7.006;2023-03-20T18:19:53;6.47;;;2.40;;
10661;SDS011;5379;51.034;7.006;2023-03-20T18:22:20;3.43;;;1.80;;
10661;SDS011;5379;51.034;7.006;2023-03-20T18:24:48;1.63;;;1.50;;
10661;SDS011;5379;51.034;7.006;2023-03-20T18:27:15;1.70;;;1.60;;
10661;SDS011;5379;51.034;7.006;2023-03-20T18:29:42;2.47;;;1.73;;
10661;SDS011;5379;51.034;7.006;2023-03-20T18:32:09;1.70;;;1.60;;
10661;SDS011;5379;51.034;7.006;2023-03-20T18:34:36;2.43;;;1.80;;
10661;SDS011;5379;51.034;7.006;2023-03-20T18:37:04;1.80;;;1.03;;
10661;SDS011;5379;51.034;7.006;2023-03-20T18:39:33;2.77;;;1.63;;
10661;SDS011;5379;51.034;7.006;2023-03-20T18:42:01;2.77;;;1.87;;
10661;SDS011;5379;51.034;7.006;2023-03-20T18:44:28;1.73;;;1.43;;
10661;SDS011;5379;51.034;7.006;2023-03-20T18:46:55;2.53;;;1.73;;
10661;SDS011;5379;51.034;7.006;2023-03-20T18:49:22;1.80;;;1.63;;
10661;SDS011;5379;51.034;7.006;2023-03-20T18:51:49;1.80;;;1.30;;
10661;SDS011;5379;51.034;7.006;2023-03-20T18:54:17;2.17;;;1.53;;
10661;SDS011;5379;51.034;7.006;2023-03-20T18:56:44;2.47;;;1.40;;
10661;SDS011;5379;51.034;7.006;2023-03-20T18:59:15;2.87;;;1.57;;
10661;SDS011;5379;51.034;7.006;2023-03-20T19:01:43;5.50;;;1.27;;
10661;SDS011;5379;51.034;7.006;2023-03-20T19:04:10;4.30;;;1.43;;
10661;SDS011;5379;51.034;7.006;2023-03-20T19:06:37;2.60;;;1.40;;
10661;SDS011;5379;51.034;7.006;2023-03-20T19:09:04;4.57;;;1.67;;
10661;SDS011;5379;51.034;7.006;2023-03-20T19:11:31;3.33;;;1.77;;
10661;SDS011;5379;51.034;7.006;2023-03-20T19:13:58;2.33;;;1.43;;
10661;SDS011;5379;51.034;7.006;2023-03-20T19:16:27;1.80;;;1.70;;
10661;SDS011;5379;51.034;7.006;2023-03-20T19:18:56;1.50;;;1.33;;
10661;SDS011;5379;51.034;7.006;2023-03-20T19:21:25;2.40;;;1.87;;
10661;SDS011;5379;51.034;7.006;2023-03-20T19:23:55;1.63;;;1.53;;
10661;SDS011;5379;51.034;7.006;2023-03-20T19:26:24;5.00;;;2.07;;
10661;SDS011;5379;51.034;7.006;2023-03-20T19:28:52;2.23;;;1.37;;
10661;SDS011;5379;51.034;7.006;2023-03-20T19:31:20;2.00;;;1.63;;
10661;SDS011;5379;51.034;7.006;2023-03-20T19:33:49;3.00;;;1.43;;
10661;SDS011;5379;51.034;7.006;2023-03-20T19:36:20;6.33;;;1.90;;
10661;SDS011;5379;51.034;7.006;2023-03-20T19:38:49;1.87;;;1.60;;
10661;SDS011;5379;51.034;7.006;2023-03-20T19:41:16;2.10;;;1.77;;
10661;SDS011;5379;51.034;7.006;2023-03-20T19:43:44;1.90;;;1.40;;
10661;SDS011;5379;51.034;7.006;2023-03-20T19:46:11;5.80;;;1.77;;
10661;SDS011;5379;51.034;7.006;2023-03-20T19:48:41;3.43;;;2.03;;
10661;SDS011;5379;51.034;7.006;2023-03-20T19:51:13;1.53;;;1.40;;
10661;SDS011;5379;51.034;7.006;2023-03-20T19:53:41;1.63;;;1.37;;
10661;SDS011;5379;51.034;7.006;2023-03-20T19:56:09;2.37;;;1.67;;
10661;SDS011;5379;51.034;7.006;2023-03-20T19:58:36;2.50;;;1.47;;